sensor_id;sensor_type;location;lat;lon;timestamp;P1;durP1;ratioP1;P2;durP2;ratioP2
74821;SDS011;63353;48.702;8.884;2023-04-19T00:00:14;17.63;;;12.03;;
74821;SDS011;63353;48.702;8.884;2023-04-19T00:02:42;17.93;;;12.47;;
74821;SDS011;63353;48.702;8.884;2023-04-19T00:05:10;17.53;;;12.70;;
74821;SDS011;63353;48.702;8.884;2023-04-19T00:07:39;18.17;;;12.23;;
74821;SDS011;63353;48.702;8.884;2023-04-19T00:10:08;18.30;;;12.67;;
74821;SDS011;63353;48.702;8.884;2023-04-19T00:12:37;17.43;;;12.17;;
74821;SDS011;63353;48.702;8.884;2023-04-19T00:15:05;16.93;;;12.30;;
74821;SDS011;63353;48.702;8.884;2023-04-19T00:17:32;17.33;;;11.77;;
74821;SDS011;63353;48.702;8.884;2023-04-19T00:19:58;17.20;;;12.73;;
74821;SDS011;63353;48.702;8.884;2023-04-19T00:22:33;19.77;;;12.97;;
74821;SDS011;63353;48.702;8.884;2023-04-19T00:25:02;19.57;;;12.77;;
74821;SDS011;63353;48.702;8.884;2023-04-19T00:27:30;17.83;;;12.80;;
74821;SDS011;63353;48.702;8.884;2023-04-19T00:29:56;19.60;;;13.57;;
74821;SDS011;63353;48.702;8.884;2023-04-19T00:32:31;18.53;;;13.00;;
74821;SDS011;63353;48.702;8.884;2023-04-19T00:35:00;18.60;;;13.37;;
74821;SDS011;63353;48.702;8.884;2023-04-19T00:37:25;20.23;;;13.80;;
74821;SDS011;63353;48.702;8.884;2023-04-19T00:39:51;22.20;;;14.20;;
74821;SDS011;63353;48.702;8.884;2023-04-19T00:42:32;21.67;;;14.43;;
74821;SDS011;63353;48.702;8.884;2023-04-19T00:44:57;22.17;;;14.57;;
74821;SDS011;63353;48.702;8.884;2023-04-19T00:47:29;20.53;;;13.33;;
74821;SDS011;63353;48.702;8.884;2023-04-19T00:49:58;22.90;;;14.53;;
74821;SDS011;63353;48.702;8.884;2023-04-19T00:52:27;21.27;;;14.43;;
74821;SDS011;63353;48.702;8.884;2023-04-19T00:54:58;22.73;;;15.07;;
74821;SDS011;63353;48.702;8.884;2023-04-19T00:57:25;22.67;;;14.63;;
74821;SDS011;63353;48.702;8.884;2023-04-19T00:59:51;22.93;;;15.40;;
74821;SDS011;63353;48.702;8.884;2023-04-19T01:02:18;24.63;;;14.97;;
74821;SDS011;63353;48.702;8.884;2023-04-19T01:04:52;23.80;;;15.83;;
74821;SDS011;63353;48.702;8.884;2023-04-19T01:07:31;25.03;;;15.53;;
74821;SDS011;63353;48.702;8.884;2023-04-19T01:09:58;25.60;;;15.80;;
74821;SDS011;63353;48.702;8.884;2023-04-19T01:12:24;22.73;;;14.93;;
74821;SDS011;63353;48.702;8.884;2023-04-19T01:14:53;25.77;;;15.47;;
74821;SDS011;63353;48.702;8.884;2023-04-19T01:17:19;24.17;;;15.27;;
74821;SDS011;63353;48.702;8.884;2023-04-19T01:19:45;23.40;;;14.70;;
74821;SDS011;63353;48.702;8.884;2023-04-19T01:22:20;27.70;;;15.73;;
74821;SDS011;63353;48.702;8.884;2023-04-19T01:24:47;27.97;;;16.00;;
74821;SDS011;63353;48.702;8.884;2023-04-19T01:27:15;25.83;;;16.03;;
74821;SDS011;63353;48.702;8.884;2023-04-19T01:29:47;25.00;;;15.57;;
74821;SDS011;63353;48.702;8.884;2023-04-19T01:32:22;25.83;;;16.73;;
74821;SDS011;63353;48.702;8.884;2023-04-19T01:34:49;26.77;;;16.10;;
74821;SDS011;63353;48.702;8.884;2023-04-19T01:37:25;26.00;;;16.43;;
74821;SDS011;63353;48.702;8.884;2023-04-19T01:39:53;28.20;;;16.37;;
74821;SDS011;63353;48.702;8.884;2023-04-19T01:42:22;27.30;;;16.00;;
74821;SDS011;63353;48.702;8.884;2023-04-19T01:44:54;25.97;;;16.67;;
74821;SDS011;63353;48.702;8.884;2023-04-19T01:47:22;23.63;;;16.00;;
74821;SDS011;63353;48.702;8.884;2023-04-19T01:49:51;25.27;;;15.80;;
74821;SDS011;63353;48.702;8.884;2023-04-19T01:52:16;26.50;;;16.27;;
74821;SDS011;63353;48.702;8.884;2023-04-19T01:54:48;27.30;;;16.53;;
74821;SDS011;63353;48.702;8.884;2023-04-19T01:57:16;29.70;;;17.33;;
74821;SDS011;63353;48.702;8.884;2023-04-19T01:59:42;30.40;;;16.57;;
74821;SDS011;63353;48.702;8.884;2023-04-19T02:02:08;28.57;;;16.17;;
74821;SDS011;63353;48.702;8.884;2023-04-19T02:04:37;28.80;;;16.67;;
74821;SDS011;63353;48.702;8.884;2023-04-19T02:07:02;28.43;;;16.93;;
74821;SDS011;63353;48.702;8.884;2023-04-19T02:09:28;25.93;;;15.97;;
74821;SDS011;63353;48.702;8.884;2023-04-19T02:11:54;28.57;;;16.40;;
74821;SDS011;63353;48.702;8.884;2023-04-19T02:14:19;28.80;;;17.23;;
74821;SDS011;63353;48.702;8.884;2023-04-19T02:16:48;29.37;;;17.10;;
74821;SDS011;63353;48.702;8.884;2023-04-19T02:19:14;29.37;;;18.33;;
74821;SDS011;63353;48.702;8.884;2023-04-19T02:21:45;27.33;;;16.87;;
74821;SDS011;63353;48.702;8.884;2023-04-19T02:24:11;29.00;;;16.20;;
74821;SDS011;63353;48.702;8.884;2023-04-19T02:26:37;34.33;;;17.67;;
74821;SDS011;63353;48.702;8.884;2023-04-19T02:29:03;28.20;;;17.63;;
74821;SDS011;63353;48.702;8.884;2023-04-19T02:31:29;28.37;;;16.90;;
74821;SDS011;63353;48.702;8.884;2023-04-19T02:33:55;30.83;;;17.50;;
74821;SDS011;63353;48.702;8.884;2023-04-19T02:36:23;31.83;;;18.17;;
74821;SDS011;63353;48.702;8.884;2023-04-19T02:38:50;27.47;;;16.90;;
74821;SDS011;63353;48.702;8.884;2023-04-19T02:41:21;29.90;;;17.93;;
74821;SDS011;63353;48.702;8.884;2023-04-19T02:43:47;30.03;;;17.33;;
74821;SDS011;63353;48.702;8.884;2023-04-19T02:46:13;31.83;;;17.50;;
74821;SDS011;63353;48.702;8.884;2023-04-19T02:48:38;31.23;;;17.80;;
74821;SDS011;63353;48.702;8.884;2023-04-19T02:51:07;34.47;;;18.70;;
74821;SDS011;63353;48.702;8.884;2023-04-19T02:53:38;33.03;;;17.73;;
74821;SDS011;63353;48.702;8.884;2023-04-19T02:56:07;30.87;;;17.80;;
74821;SDS011;63353;48.702;8.884;2023-04-19T02:58:36;28.80;;;17.00;;
74821;SDS011;63353;48.702;8.884;2023-04-19T03:01:01;29.83;;;16.53;;
74821;SDS011;63353;48.702;8.884;2023-04-19T03:03:27;33.00;;;18.50;;
74821;SDS011;63353;48.702;8.884;2023-04-19T03:05:53;32.13;;;18.30;;
74821;SDS011;63353;48.702;8.884;2023-04-19T03:08:31;30.37;;;18.40;;
74821;SDS011;63353;48.702;8.884;2023-04-19T03:11:00;30.10;;;17.67;;
74821;SDS011;63353;48.702;8.884;2023-04-19T03:13:25;30.90;;;18.37;;
74821;SDS011;63353;48.702;8.884;2023-04-19T03:15:54;30.67;;;18.27;;
74821;SDS011;63353;48.702;8.884;2023-04-19T03:18:32;31.07;;;18.43;;
74821;SDS011;63353;48.702;8.884;2023-04-19T03:20:58;30.80;;;17.97;;
74821;SDS011;63353;48.702;8.884;2023-04-19T03:23:27;32.57;;;18.47;;
74821;SDS011;63353;48.702;8.884;2023-04-19T03:25:53;31.60;;;18.63;;
74821;SDS011;63353;48.702;8.884;2023-04-19T03:28:22;30.53;;;17.50;;
74821;SDS011;63353;48.702;8.884;2023-04-19T03:30:50;33.20;;;18.93;;
74821;SDS011;63353;48.702;8.884;2023-04-19T03:33:16;30.90;;;18.33;;
74821;SDS011;63353;48.702;8.884;2023-04-19T03:35:51;34.90;;;18.77;;
74821;SDS011;63353;48.702;8.884;2023-04-19T03:38:22;32.67;;;19.37;;
74821;SDS011;63353;48.702;8.884;2023-04-19T03:40:48;33.97;;;19.80;;
74821;SDS011;63353;48.702;8.884;2023-04-19T03:43:19;31.87;;;18.33;;
74821;SDS011;63353;48.702;8.884;2023-04-19T03:45:54;32.17;;;19.17;;
74821;SDS011;63353;48.702;8.884;2023-04-19T03:48:19;33.70;;;18.17;;
74821;SDS011;63353;48.702;8.884;2023-04-19T03:50:45;31.93;;;18.37;;
74821;SDS011;63353;48.702;8.884;2023-04-19T03:53:11;34.90;;;19.07;;
74821;SDS011;63353;48.702;8.884;2023-04-19T03:55:36;35.30;;;19.13;;
74821;SDS011;63353;48.702;8.884;2023-04-19T03:58:02;35.30;;;19.27;;
74821;SDS011;63353;48.702;8.884;2023-04-19T04:00:30;32.20;;;18.10;;
74821;SDS011;63353;48.702;8.884;2023-04-19T04:02:56;35.90;;;19.37;;
74821;SDS011;63353;48.702;8.884;2023-04-19T04:05:21;32.70;;;19.10;;
74821;SDS011;63353;48.702;8.884;2023-04-19T04:07:47;33.93;;;18.87;;
74821;SDS011;63353;48.702;8.884;2023-04-19T04:10:15;36.53;;;19.13;;
74821;SDS011;63353;48.702;8.884;2023-04-19T04:12:41;35.50;;;19.53;;
74821;SDS011;63353;48.702;8.884;2023-04-19T04:15:07;35.93;;;18.97;;
74821;SDS011;63353;48.702;8.884;2023-04-19T04:17:33;35.87;;;20.27;;
74821;SDS011;63353;48.702;8.884;2023-04-19T04:19:59;37.37;;;20.07;;
74821;SDS011;63353;48.702;8.884;2023-04-19T04:22:25;35.07;;;19.97;;
74821;SDS011;63353;48.702;8.884;2023-04-19T04:24:50;34.33;;;19.37;;
74821;SDS011;63353;48.702;8.884;2023-04-19T04:27:22;36.97;;;21.97;;
74821;SDS011;63353;48.702;8.884;2023-04-19T04:29:47;36.87;;;20.53;;
74821;SDS011;63353;48.702;8.884;2023-04-19T04:32:22;36.50;;;20.37;;
74821;SDS011;63353;48.702;8.884;2023-04-19T04:34:48;34.50;;;19.33;;
74821;SDS011;63353;48.702;8.884;2023-04-19T04:37:14;34.23;;;18.90;;
74821;SDS011;63353;48.702;8.884;2023-04-19T04:39:43;34.90;;;19.90;;
74821;SDS011;63353;48.702;8.884;2023-04-19T04:42:08;36.83;;;20.57;;
74821;SDS011;63353;48.702;8.884;2023-04-19T04:44:34;32.40;;;19.40;;
74821;SDS011;63353;48.702;8.884;2023-04-19T04:47:03;38.67;;;20.87;;
74821;SDS011;63353;48.702;8.884;2023-04-19T04:49:29;33.77;;;19.70;;
74821;SDS011;63353;48.702;8.884;2023-04-19T04:51:58;36.47;;;20.17;;
74821;SDS011;63353;48.702;8.884;2023-04-19T04:54:23;36.60;;;21.07;;
74821;SDS011;63353;48.702;8.884;2023-04-19T04:56:49;37.57;;;21.27;;
74821;SDS011;63353;48.702;8.884;2023-04-19T04:59:15;35.27;;;20.00;;
74821;SDS011;63353;48.702;8.884;2023-04-19T05:01:55;38.47;;;21.03;;
74821;SDS011;63353;48.702;8.884;2023-04-19T05:04:21;36.00;;;19.93;;
74821;SDS011;63353;48.702;8.884;2023-04-19T05:06:53;35.57;;;20.03;;
74821;SDS011;63353;48.702;8.884;2023-04-19T05:09:19;32.60;;;19.70;;
74821;SDS011;63353;48.702;8.884;2023-04-19T05:11:44;32.57;;;18.90;;
74821;SDS011;63353;48.702;8.884;2023-04-19T05:14:10;34.57;;;20.20;;
74821;SDS011;63353;48.702;8.884;2023-04-19T05:16:36;33.77;;;19.57;;
74821;SDS011;63353;48.702;8.884;2023-04-19T05:19:02;35.17;;;19.63;;
74821;SDS011;63353;48.702;8.884;2023-04-19T05:21:27;34.10;;;19.93;;
74821;SDS011;63353;48.702;8.884;2023-04-19T05:23:53;35.57;;;20.47;;
74821;SDS011;63353;48.702;8.884;2023-04-19T05:26:19;33.10;;;19.07;;
74821;SDS011;63353;48.702;8.884;2023-04-19T05:28:44;36.17;;;19.83;;
74821;SDS011;63353;48.702;8.884;2023-04-19T05:31:10;35.70;;;20.43;;
74821;SDS011;63353;48.702;8.884;2023-04-19T05:33:36;34.30;;;19.17;;
74821;SDS011;63353;48.702;8.884;2023-04-19T05:36:02;34.97;;;19.87;;
74821;SDS011;63353;48.702;8.884;2023-04-19T05:38:28;32.33;;;19.30;;
74821;SDS011;63353;48.702;8.884;2023-04-19T05:40:53;34.23;;;19.50;;
74821;SDS011;63353;48.702;8.884;2023-04-19T05:43:25;33.57;;;19.63;;
74821;SDS011;63353;48.702;8.884;2023-04-19T05:45:54;31.97;;;19.00;;
74821;SDS011;63353;48.702;8.884;2023-04-19T05:48:22;33.93;;;18.67;;
74821;SDS011;63353;48.702;8.884;2023-04-19T05:50:49;33.57;;;19.53;;
74821;SDS011;63353;48.702;8.884;2023-04-19T05:53:18;35.07;;;18.67;;
74821;SDS011;63353;48.702;8.884;2023-04-19T05:55:49;33.47;;;19.23;;
74821;SDS011;63353;48.702;8.884;2023-04-19T05:58:16;32.23;;;18.33;;
74821;SDS011;63353;48.702;8.884;2023-04-19T06:00:42;33.33;;;18.90;;
74821;SDS011;63353;48.702;8.884;2023-04-19T06:03:08;30.80;;;19.33;;
74821;SDS011;63353;48.702;8.884;2023-04-19T06:05:33;34.07;;;19.63;;
74821;SDS011;63353;48.702;8.884;2023-04-19T06:07:59;33.27;;;18.83;;
74821;SDS011;63353;48.702;8.884;2023-04-19T06:10:25;33.90;;;19.20;;
74821;SDS011;63353;48.702;8.884;2023-04-19T06:12:50;32.20;;;18.57;;
74821;SDS011;63353;48.702;8.884;2023-04-19T06:15:16;31.23;;;18.40;;
74821;SDS011;63353;48.702;8.884;2023-04-19T06:17:41;33.73;;;21.13;;
74821;SDS011;63353;48.702;8.884;2023-04-19T06:20:07;51.20;;;29.30;;
74821;SDS011;63353;48.702;8.884;2023-04-19T06:22:34;82.13;;;47.53;;
74821;SDS011;63353;48.702;8.884;2023-04-19T06:25:05;40.73;;;24.97;;
74821;SDS011;63353;48.702;8.884;2023-04-19T06:27:31;35.00;;;20.03;;
74821;SDS011;63353;48.702;8.884;2023-04-19T06:29:56;46.03;;;29.30;;
74821;SDS011;63353;48.702;8.884;2023-04-19T06:32:24;35.23;;;21.93;;
74821;SDS011;63353;48.702;8.884;2023-04-19T06:34:53;34.43;;;21.43;;
74821;SDS011;63353;48.702;8.884;2023-04-19T06:37:19;37.17;;;20.40;;
74821;SDS011;63353;48.702;8.884;2023-04-19T06:39:45;34.10;;;21.77;;
74821;SDS011;63353;48.702;8.884;2023-04-19T06:42:10;38.03;;;21.33;;
74821;SDS011;63353;48.702;8.884;2023-04-19T06:44:36;37.33;;;25.00;;
74821;SDS011;63353;48.702;8.884;2023-04-19T06:47:02;38.13;;;22.30;;
74821;SDS011;63353;48.702;8.884;2023-04-19T06:49:28;30.43;;;19.30;;
74821;SDS011;63353;48.702;8.884;2023-04-19T06:51:53;31.60;;;17.83;;
74821;SDS011;63353;48.702;8.884;2023-04-19T06:54:19;31.47;;;19.60;;
74821;SDS011;63353;48.702;8.884;2023-04-19T06:56:45;32.00;;;19.77;;
74821;SDS011;63353;48.702;8.884;2023-04-19T06:59:13;28.30;;;18.17;;
74821;SDS011;63353;48.702;8.884;2023-04-19T07:01:43;27.67;;;17.87;;
74821;SDS011;63353;48.702;8.884;2023-04-19T07:04:09;27.67;;;17.67;;
74821;SDS011;63353;48.702;8.884;2023-04-19T07:06:35;31.57;;;18.43;;
74821;SDS011;63353;48.702;8.884;2023-04-19T07:09:05;29.50;;;17.53;;
74821;SDS011;63353;48.702;8.884;2023-04-19T07:11:31;29.10;;;16.93;;
74821;SDS011;63353;48.702;8.884;2023-04-19T07:13:59;35.07;;;22.63;;
74821;SDS011;63353;48.702;8.884;2023-04-19T07:16:25;30.27;;;17.57;;
74821;SDS011;63353;48.702;8.884;2023-04-19T07:18:51;33.10;;;20.57;;
74821;SDS011;63353;48.702;8.884;2023-04-19T07:21:20;28.57;;;17.07;;
74821;SDS011;63353;48.702;8.884;2023-04-19T07:23:46;26.83;;;17.50;;
74821;SDS011;63353;48.702;8.884;2023-04-19T07:26:11;29.97;;;19.13;;
74821;SDS011;63353;48.702;8.884;2023-04-19T07:28:38;24.60;;;15.90;;
74821;SDS011;63353;48.702;8.884;2023-04-19T07:31:04;28.57;;;17.93;;
74821;SDS011;63353;48.702;8.884;2023-04-19T07:33:30;27.03;;;17.93;;
74821;SDS011;63353;48.702;8.884;2023-04-19T07:35:56;27.73;;;18.47;;
74821;SDS011;63353;48.702;8.884;2023-04-19T07:38:22;26.47;;;18.57;;
74821;SDS011;63353;48.702;8.884;2023-04-19T07:40:48;22.00;;;14.67;;
74821;SDS011;63353;48.702;8.884;2023-04-19T07:43:14;22.17;;;14.47;;
74821;SDS011;63353;48.702;8.884;2023-04-19T07:45:40;20.53;;;14.47;;
74821;SDS011;63353;48.702;8.884;2023-04-19T07:48:06;22.53;;;15.47;;
74821;SDS011;63353;48.702;8.884;2023-04-19T07:50:31;21.80;;;14.70;;
74821;SDS011;63353;48.702;8.884;2023-04-19T07:52:57;21.30;;;14.97;;
74821;SDS011;63353;48.702;8.884;2023-04-19T07:55:23;23.87;;;17.40;;
74821;SDS011;63353;48.702;8.884;2023-04-19T07:57:48;24.90;;;16.30;;
74821;SDS011;63353;48.702;8.884;2023-04-19T08:00:14;26.33;;;15.70;;
74821;SDS011;63353;48.702;8.884;2023-04-19T08:02:48;25.10;;;15.00;;
74821;SDS011;63353;48.702;8.884;2023-04-19T08:05:14;22.67;;;15.27;;
74821;SDS011;63353;48.702;8.884;2023-04-19T08:07:46;23.07;;;15.23;;
74821;SDS011;63353;48.702;8.884;2023-04-19T08:10:12;21.80;;;15.20;;
74821;SDS011;63353;48.702;8.884;2023-04-19T08:12:38;22.00;;;15.67;;
74821;SDS011;63353;48.702;8.884;2023-04-19T08:15:05;24.33;;;15.63;;
74821;SDS011;63353;48.702;8.884;2023-04-19T08:17:32;23.10;;;15.30;;
74821;SDS011;63353;48.702;8.884;2023-04-19T08:19:58;22.67;;;15.33;;
74821;SDS011;63353;48.702;8.884;2023-04-19T08:22:26;25.30;;;15.50;;
74821;SDS011;63353;48.702;8.884;2023-04-19T08:24:52;25.10;;;16.00;;
74821;SDS011;63353;48.702;8.884;2023-04-19T08:27:20;22.70;;;14.93;;
74821;SDS011;63353;48.702;8.884;2023-04-19T08:29:46;20.53;;;14.90;;
74821;SDS011;63353;48.702;8.884;2023-04-19T08:32:12;20.73;;;14.80;;
74821;SDS011;63353;48.702;8.884;2023-04-19T08:34:38;22.70;;;14.67;;
74821;SDS011;63353;48.702;8.884;2023-04-19T08:37:07;22.77;;;14.63;;
74821;SDS011;63353;48.702;8.884;2023-04-19T08:39:33;24.20;;;15.33;;
74821;SDS011;63353;48.702;8.884;2023-04-19T08:42:05;22.40;;;15.20;;
74821;SDS011;63353;48.702;8.884;2023-04-19T08:44:32;22.20;;;14.83;;
74821;SDS011;63353;48.702;8.884;2023-04-19T08:46:59;21.93;;;15.33;;
74821;SDS011;63353;48.702;8.884;2023-04-19T08:49:27;30.37;;;19.60;;
74821;SDS011;63353;48.702;8.884;2023-04-19T08:52:01;21.50;;;15.40;;
74821;SDS011;63353;48.702;8.884;2023-04-19T08:54:29;18.80;;;14.00;;
74821;SDS011;63353;48.702;8.884;2023-04-19T08:56:57;19.77;;;14.37;;
74821;SDS011;63353;48.702;8.884;2023-04-19T08:59:24;18.67;;;12.80;;
74821;SDS011;63353;48.702;8.884;2023-04-19T09:01:50;19.77;;;14.17;;
74821;SDS011;63353;48.702;8.884;2023-04-19T09:04:15;20.27;;;13.87;;
74821;SDS011;63353;48.702;8.884;2023-04-19T09:06:44;23.93;;;17.00;;
74821;SDS011;63353;48.702;8.884;2023-04-19T09:09:17;19.97;;;13.60;;
74821;SDS011;63353;48.702;8.884;2023-04-19T09:11:46;17.63;;;13.03;;
74821;SDS011;63353;48.702;8.884;2023-04-19T09:14:15;17.70;;;12.57;;
74821;SDS011;63353;48.702;8.884;2023-04-19T09:16:42;16.90;;;13.27;;
74821;SDS011;63353;48.702;8.884;2023-04-19T09:19:09;16.23;;;12.20;;
74821;SDS011;63353;48.702;8.884;2023-04-19T09:21:36;15.67;;;12.40;;
74821;SDS011;63353;48.702;8.884;2023-04-19T09:24:02;20.37;;;14.10;;
74821;SDS011;63353;48.702;8.884;2023-04-19T09:26:29;16.93;;;13.00;;
74821;SDS011;63353;48.702;8.884;2023-04-19T09:29:01;19.70;;;15.13;;
74821;SDS011;63353;48.702;8.884;2023-04-19T09:31:32;16.30;;;12.30;;
74821;SDS011;63353;48.702;8.884;2023-04-19T09:36:38;17.33;;;12.90;;
74821;SDS011;63353;48.702;8.884;2023-04-19T09:39:04;15.77;;;11.40;;
74821;SDS011;63353;48.702;8.884;2023-04-19T09:41:30;14.83;;;11.00;;
74821;SDS011;63353;48.702;8.884;2023-04-19T09:44:10;16.33;;;11.80;;
74821;SDS011;63353;48.702;8.884;2023-04-19T09:46:39;14.70;;;10.77;;
74821;SDS011;63353;48.702;8.884;2023-04-19T09:51:41;17.30;;;12.30;;
74821;SDS011;63353;48.702;8.884;2023-04-19T09:54:08;17.40;;;13.07;;
74821;SDS011;63353;48.702;8.884;2023-04-19T09:56:36;16.90;;;12.10;;
74821;SDS011;63353;48.702;8.884;2023-04-19T09:59:02;17.57;;;12.70;;
74821;SDS011;63353;48.702;8.884;2023-04-19T10:01:37;18.20;;;12.80;;
74821;SDS011;63353;48.702;8.884;2023-04-19T10:04:04;16.70;;;12.50;;
74821;SDS011;63353;48.702;8.884;2023-04-19T10:06:31;18.50;;;12.43;;
74821;SDS011;63353;48.702;8.884;2023-04-19T10:09:02;15.57;;;11.93;;
74821;SDS011;63353;48.702;8.884;2023-04-19T10:11:32;16.07;;;12.03;;
74821;SDS011;63353;48.702;8.884;2023-04-19T10:16:35;16.37;;;11.97;;
74821;SDS011;63353;48.702;8.884;2023-04-19T10:19:03;19.93;;;13.33;;
74821;SDS011;63353;48.702;8.884;2023-04-19T10:21:34;15.90;;;12.50;;
74821;SDS011;63353;48.702;8.884;2023-04-19T10:24:00;16.37;;;12.27;;
74821;SDS011;63353;48.702;8.884;2023-04-19T10:26:27;15.10;;;12.00;;
74821;SDS011;63353;48.702;8.884;2023-04-19T10:28:55;40.17;;;26.70;;
74821;SDS011;63353;48.702;8.884;2023-04-19T10:31:23;17.93;;;12.80;;
74821;SDS011;63353;48.702;8.884;2023-04-19T10:33:50;15.30;;;11.80;;
74821;SDS011;63353;48.702;8.884;2023-04-19T10:36:16;15.30;;;11.83;;
74821;SDS011;63353;48.702;8.884;2023-04-19T10:38:49;16.67;;;13.53;;
74821;SDS011;63353;48.702;8.884;2023-04-19T10:41:19;18.67;;;15.77;;
74821;SDS011;63353;48.702;8.884;2023-04-19T10:43:48;15.80;;;12.43;;
74821;SDS011;63353;48.702;8.884;2023-04-19T10:49:00;16.90;;;12.70;;
74821;SDS011;63353;48.702;8.884;2023-04-19T10:54:03;18.50;;;14.33;;
74821;SDS011;63353;48.702;8.884;2023-04-19T11:04:07;27.13;;;19.27;;
74821;SDS011;63353;48.702;8.884;2023-04-19T11:06:59;18.03;;;14.80;;
74821;SDS011;63353;48.702;8.884;2023-04-19T11:12:16;17.47;;;13.50;;
74821;SDS011;63353;48.702;8.884;2023-04-19T11:14:43;22.97;;;19.17;;
74821;SDS011;63353;48.702;8.884;2023-04-19T11:17:21;16.00;;;12.17;;
74821;SDS011;63353;48.702;8.884;2023-04-19T11:19:52;15.33;;;12.40;;
74821;SDS011;63353;48.702;8.884;2023-04-19T11:22:32;13.87;;;10.97;;
74821;SDS011;63353;48.702;8.884;2023-04-19T11:25:14;20.00;;;16.83;;
74821;SDS011;63353;48.702;8.884;2023-04-19T11:27:49;17.23;;;13.90;;
74821;SDS011;63353;48.702;8.884;2023-04-19T11:30:20;16.70;;;14.07;;
74821;SDS011;63353;48.702;8.884;2023-04-19T11:32:53;17.07;;;12.70;;
74821;SDS011;63353;48.702;8.884;2023-04-19T11:35:24;18.37;;;14.43;;
74821;SDS011;63353;48.702;8.884;2023-04-19T11:37:51;15.87;;;12.20;;
74821;SDS011;63353;48.702;8.884;2023-04-19T11:40:21;16.70;;;12.73;;
74821;SDS011;63353;48.702;8.884;2023-04-19T11:42:57;18.97;;;14.57;;
74821;SDS011;63353;48.702;8.884;2023-04-19T11:47:53;21.30;;;13.87;;
74821;SDS011;63353;48.702;8.884;2023-04-19T11:50:29;17.43;;;13.30;;
74821;SDS011;63353;48.702;8.884;2023-04-19T11:53:08;17.10;;;13.13;;
74821;SDS011;63353;48.702;8.884;2023-04-19T11:55:44;15.53;;;12.50;;
74821;SDS011;63353;48.702;8.884;2023-04-19T12:00:52;19.13;;;13.47;;
74821;SDS011;63353;48.702;8.884;2023-04-19T12:03:22;19.67;;;14.47;;
74821;SDS011;63353;48.702;8.884;2023-04-19T12:05:51;17.70;;;13.33;;
74821;SDS011;63353;48.702;8.884;2023-04-19T12:08:28;18.43;;;13.40;;
74821;SDS011;63353;48.702;8.884;2023-04-19T12:10:56;21.47;;;15.10;;
74821;SDS011;63353;48.702;8.884;2023-04-19T12:13:23;17.07;;;12.90;;
74821;SDS011;63353;48.702;8.884;2023-04-19T12:15:50;19.27;;;13.83;;
74821;SDS011;63353;48.702;8.884;2023-04-19T12:18:16;19.33;;;14.30;;
74821;SDS011;63353;48.702;8.884;2023-04-19T12:20:45;19.90;;;14.63;;
74821;SDS011;63353;48.702;8.884;2023-04-19T12:23:13;22.23;;;15.30;;
74821;SDS011;63353;48.702;8.884;2023-04-19T12:25:40;21.80;;;15.03;;
74821;SDS011;63353;48.702;8.884;2023-04-19T12:28:06;22.17;;;15.03;;
74821;SDS011;63353;48.702;8.884;2023-04-19T12:30:32;22.03;;;15.23;;
74821;SDS011;63353;48.702;8.884;2023-04-19T12:33:00;20.97;;;14.27;;
74821;SDS011;63353;48.702;8.884;2023-04-19T12:35:26;23.07;;;15.43;;
74821;SDS011;63353;48.702;8.884;2023-04-19T12:37:56;21.20;;;15.10;;
74821;SDS011;63353;48.702;8.884;2023-04-19T12:40:22;20.13;;;14.50;;
74821;SDS011;63353;48.702;8.884;2023-04-19T12:42:55;20.60;;;14.70;;
74821;SDS011;63353;48.702;8.884;2023-04-19T12:45:20;19.60;;;14.03;;
74821;SDS011;63353;48.702;8.884;2023-04-19T12:47:49;23.17;;;14.77;;
74821;SDS011;63353;48.702;8.884;2023-04-19T12:50:15;22.80;;;15.23;;
74821;SDS011;63353;48.702;8.884;2023-04-19T12:52:41;27.67;;;15.30;;
74821;SDS011;63353;48.702;8.884;2023-04-19T12:55:07;23.87;;;15.63;;
74821;SDS011;63353;48.702;8.884;2023-04-19T12:57:33;23.17;;;15.07;;
74821;SDS011;63353;48.702;8.884;2023-04-19T12:59:59;21.23;;;14.60;;
74821;SDS011;63353;48.702;8.884;2023-04-19T13:02:34;20.57;;;14.33;;
74821;SDS011;63353;48.702;8.884;2023-04-19T13:05:02;23.10;;;15.70;;
74821;SDS011;63353;48.702;8.884;2023-04-19T13:07:31;39.83;;;25.10;;
74821;SDS011;63353;48.702;8.884;2023-04-19T13:09:57;24.43;;;17.30;;
74821;SDS011;63353;48.702;8.884;2023-04-19T13:12:23;27.13;;;17.90;;
74821;SDS011;63353;48.702;8.884;2023-04-19T13:14:49;30.33;;;21.40;;
74821;SDS011;63353;48.702;8.884;2023-04-19T13:17:25;29.63;;;18.57;;
74821;SDS011;63353;48.702;8.884;2023-04-19T13:19:51;31.50;;;21.97;;
74821;SDS011;63353;48.702;8.884;2023-04-19T13:22:16;31.53;;;20.10;;
74821;SDS011;63353;48.702;8.884;2023-04-19T13:24:57;31.33;;;19.77;;
74821;SDS011;63353;48.702;8.884;2023-04-19T13:27:23;36.97;;;23.67;;
74821;SDS011;63353;48.702;8.884;2023-04-19T13:29:53;32.27;;;18.73;;
74821;SDS011;63353;48.702;8.884;2023-04-19T13:32:20;32.03;;;20.07;;
74821;SDS011;63353;48.702;8.884;2023-04-19T13:34:46;38.07;;;21.37;;
74821;SDS011;63353;48.702;8.884;2023-04-19T13:37:11;33.37;;;19.40;;
74821;SDS011;63353;48.702;8.884;2023-04-19T13:39:37;35.77;;;20.07;;
74821;SDS011;63353;48.702;8.884;2023-04-19T13:42:03;36.23;;;21.10;;
74821;SDS011;63353;48.702;8.884;2023-04-19T13:44:29;41.13;;;23.57;;
74821;SDS011;63353;48.702;8.884;2023-04-19T13:46:55;36.13;;;21.17;;
74821;SDS011;63353;48.702;8.884;2023-04-19T13:49:21;34.23;;;19.77;;
74821;SDS011;63353;48.702;8.884;2023-04-19T13:51:47;33.70;;;20.73;;
74821;SDS011;63353;48.702;8.884;2023-04-19T13:54:13;30.37;;;18.97;;
74821;SDS011;63353;48.702;8.884;2023-04-19T13:56:41;30.83;;;19.27;;
74821;SDS011;63353;48.702;8.884;2023-04-19T13:59:07;31.30;;;19.53;;
74821;SDS011;63353;48.702;8.884;2023-04-19T14:01:32;33.00;;;20.87;;
74821;SDS011;63353;48.702;8.884;2023-04-19T14:03:58;31.10;;;19.43;;
74821;SDS011;63353;48.702;8.884;2023-04-19T14:06:27;30.47;;;19.60;;
74821;SDS011;63353;48.702;8.884;2023-04-19T14:08:52;33.43;;;20.30;;
74821;SDS011;63353;48.702;8.884;2023-04-19T14:11:18;39.77;;;23.87;;
74821;SDS011;63353;48.702;8.884;2023-04-19T14:13:45;34.57;;;22.53;;
74821;SDS011;63353;48.702;8.884;2023-04-19T14:16:12;34.50;;;21.30;;
74821;SDS011;63353;48.702;8.884;2023-04-19T14:18:38;32.37;;;20.20;;
74821;SDS011;63353;48.702;8.884;2023-04-19T14:21:03;33.63;;;21.63;;
74821;SDS011;63353;48.702;8.884;2023-04-19T14:23:29;42.97;;;29.33;;
74821;SDS011;63353;48.702;8.884;2023-04-19T14:25:56;31.77;;;21.43;;
74821;SDS011;63353;48.702;8.884;2023-04-19T14:28:22;32.87;;;20.10;;
74821;SDS011;63353;48.702;8.884;2023-04-19T14:30:47;32.40;;;20.50;;
74821;SDS011;63353;48.702;8.884;2023-04-19T14:33:13;37.03;;;24.73;;
74821;SDS011;63353;48.702;8.884;2023-04-19T14:35:39;35.27;;;21.50;;
74821;SDS011;63353;48.702;8.884;2023-04-19T14:38:06;35.23;;;22.20;;
74821;SDS011;63353;48.702;8.884;2023-04-19T14:40:32;32.27;;;20.70;;
74821;SDS011;63353;48.702;8.884;2023-04-19T14:42:57;29.40;;;19.13;;
74821;SDS011;63353;48.702;8.884;2023-04-19T14:45:23;32.43;;;19.90;;
74821;SDS011;63353;48.702;8.884;2023-04-19T14:47:49;32.53;;;22.03;;
74821;SDS011;63353;48.702;8.884;2023-04-19T14:50:15;31.80;;;21.23;;
74821;SDS011;63353;48.702;8.884;2023-04-19T14:52:41;35.70;;;22.27;;